Time;durP1;ratioP1;P1;durP2;ratioP2;P2;SDS_P1;SDS_P2;PMS_P1;PMS_P2;Temp;Humidity;BMP_temperature;BMP_pressure;BME280_temperature;BME280_humidity;BME280_pressure;Samples;Min_cycle;Max_cycle;Signal;HPM_P1;HPM_P2
2022/08/15 00:01:12;;;;;;;15.77;6.65;;;;;;;23.41;48.62;101094.75;4844356;29;20118;-55
2022/08/15 00:03:44;;;;;;;18.27;6.25;;;;;;;22.70;50.22;101093.28;4844408;29;20026;-56
2022/08/15 00:06:13;;;;;;;14.40;5.85;;;;;;;22.80;51.78;101093.22;4844184;29;20532;-56
2022/08/15 00:08:45;;;;;;;20.63;5.80;;;;;;;22.48;51.41;101092.84;4844354;29;20400;-54
2022/08/15 00:11:18;;;;;;;18.05;6.50;;;;;;;22.57;51.64;101091.19;4844782;29;20029;-56
2022/08/15 00:13:49;;;;;;;18.27;6.50;;;;;;;22.80;51.82;101079.59;4844564;29;20068;-56
2022/08/15 00:16:18;;;;;;;16.63;5.78;;;;;;;22.97;50.19;101083.88;4844566;29;20033;-57
2022/08/15 00:18:47;;;;;;;20.50;5.80;;;;;;;22.80;50.43;101078.78;4844212;29;20026;-56
2022/08/15 00:21:13;;;;;;;15.15;6.35;;;;;;;23.00;50.34;101075.16;4844412;29;20037;-56
2022/08/15 00:23:40;;;;;;;19.08;6.70;;;;;;;22.94;51.01;101079.81;4844160;29;20039;-53
2022/08/15 00:26:09;;;;;;;15.20;5.88;;;;;;;23.03;51.45;101074.56;4844016;29;20034;-54
2022/08/15 00:28:35;;;;;;;16.75;6.32;;;;;;;22.91;50.60;101075.72;4843894;29;20373;-53
2022/08/15 00:31:01;;;;;;;17.23;6.05;;;;;;;22.76;51.38;101081.25;4843960;29;20030;-53
2022/08/15 00:33:28;;;;;;;18.90;6.53;;;;;;;22.74;51.29;101083.44;4844439;29;20034;-55
2022/08/15 00:35:55;;;;;;;16.27;5.60;;;;;;;22.79;50.49;101077.16;4843956;29;20070;-53
2022/08/15 00:38:25;;;;;;;9.93;5.32;;;;;;;22.74;51.05;101074.44;4844037;29;20559;-53
2022/08/15 00:43:56;;;;;;;14.02;6.10;;;;;;;22.13;52.54;101070.06;4844547;29;20048;-53
2022/08/15 00:46:23;;;;;;;19.00;6.47;;;;;;;22.06;53.32;101064.88;4843446;29;20476;-52
2022/08/15 00:48:50;;;;;;;14.75;6.07;;;;;;;22.21;53.06;101064.06;4843730;29;20068;-53
2022/08/15 00:51:30;;;;;;;13.57;6.45;;;;;;;22.30;52.67;101062.38;4843688;29;20030;-54
2022/08/15 00:54:05;;;;;;;15.68;6.60;;;;;;;22.62;52.30;101061.16;4843637;29;20026;-55
2022/08/15 00:56:38;;;;;;;12.93;5.55;;;;;;;22.68;51.74;101051.84;4843460;29;20099;-62
2022/08/15 00:59:08;;;;;;;17.90;6.60;;;;;;;22.36;51.44;101061.25;4843503;29;20030;-62
2022/08/15 01:01:35;;;;;;;17.80;6.68;;;;;;;22.48;50.58;101060.94;4843350;29;20030;-65
2022/08/15 01:04:02;;;;;;;16.35;6.10;;;;;;;22.33;51.67;101056.38;4843371;29;20037;-64
2022/08/15 01:06:33;;;;;;;13.73;6.03;;;;;;;22.51;51.22;101060.38;4843155;29;20444;-63
2022/08/15 01:09:02;;;;;;;18.10;6.20;;;;;;;22.53;50.63;101057.38;4843396;29;20060;-65
2022/08/15 01:11:34;;;;;;;20.38;6.25;;;;;;;22.71;51.02;101048.56;4843308;29;20065;-61
2022/08/15 01:14:01;;;;;;;16.17;6.68;;;;;;;22.66;50.15;101048.59;4843375;29;20084;-66
2022/08/15 01:16:30;;;;;;;15.30;5.80;;;;;;;22.92;50.62;101055.50;4843122;29;20041;-62
2022/08/15 01:18:57;;;;;;;13.35;5.57;;;;;;;22.69;50.61;101048.00;4843207;29;20474;-65
2022/08/15 01:21:51;;;;;;;14.85;6.10;;;;;;;22.82;50.16;101044.66;4843868;29;20041;-58
2022/08/15 01:24:51;;;;;;;13.55;6.00;;;;;;;22.68;50.07;101035.47;4839574;29;20065;-58
2022/08/15 01:27:19;;;;;;;15.77;6.03;;;;;;;22.46;51.30;101043.22;4843069;29;20084;-67
2022/08/15 01:29:48;;;;;;;17.33;5.72;;;;;;;22.18;51.17;101045.53;4843061;29;20052;-57
2022/08/15 01:32:14;;;;;;;17.17;6.35;;;;;;;22.40;51.42;101039.69;4842904;29;20030;-58
2022/08/15 01:34:41;;;;;;;13.43;5.75;;;;;;;22.51;51.75;101035.00;4842984;29;20479;-58
2022/08/15 01:37:07;;;;;;;17.85;6.43;;;;;;;22.35;51.65;101034.28;4842932;29;20030;-58
2022/08/15 01:39:51;;;;;;;14.70;6.22;;;;;;;22.46;51.54;101037.75;4842970;29;20034;-58
2022/08/15 01:42:29;;;;;;;13.70;6.05;;;;;;;22.20;51.97;101039.78;4843158;29;20038;-58
2022/08/15 01:45:03;;;;;;;15.05;5.60;;;;;;;22.14;52.98;101033.53;4842699;29;20046;-58
2022/08/15 01:47:52;;;;;;;17.23;6.20;;;;;;;22.03;52.69;101029.19;4842744;29;20034;-58
2022/08/15 01:50:43;;;;;;;15.63;6.22;;;;;;;21.82;53.25;101036.59;4842820;29;20483;-58
2022/08/15 01:53:16;;;;;;;17.23;7.10;;;;;;;21.80;53.80;101030.63;4842202;29;20472;-58
2022/08/15 01:56:06;;;;;;;17.63;6.72;;;;;;;21.84;53.35;101039.88;4842652;29;20113;-57
2022/08/15 01:58:39;;;;;;;18.58;6.47;;;;;;;21.77;53.65;101034.72;4842284;29;20052;-57
2022/08/15 02:01:10;;;;;;;19.65;6.30;;;;;;;21.72;53.19;101037.44;4842502;29;20026;-58
2022/08/15 02:03:39;;;;;;;23.63;6.82;;;;;;;21.53;53.77;101031.75;4842607;29;20376;-57
2022/08/15 02:06:11;;;;;;;30.42;7.78;;;;;;;21.43;53.40;101033.66;4842570;29;20033;-58
2022/08/15 02:08:39;;;;;;;19.80;7.57;;;;;;;21.09;54.28;101035.00;4842446;29;20106;-57
2022/08/15 02:11:13;;;;;;;18.70;7.28;;;;;;;21.16;54.07;101026.59;4843135;29;20095;-57
2022/08/15 02:13:41;;;;;;;22.90;7.53;;;;;;;21.13;54.45;101029.84;4842569;29;20030;-58
2022/08/15 02:16:07;;;;;;;18.85;6.68;;;;;;;21.25;54.45;101032.28;4842561;29;20116;-57
2022/08/15 02:18:34;;;;;;;13.98;6.28;;;;;;;21.24;54.35;101026.03;4842385;29;20057;-58
2022/08/15 02:21:00;;;;;;;16.88;6.72;;;;;;;20.74;55.57;101027.63;4842713;29;20033;-58
2022/08/15 02:23:27;;;;;;;22.90;6.93;;;;;;;20.98;54.74;101022.47;4842639;29;20038;-55
2022/08/15 02:25:54;;;;;;;18.90;7.10;;;;;;;20.91;54.58;101021.09;4842377;29;20485;-58
2022/08/15 02:28:22;;;;;;;17.67;6.53;;;;;;;21.03;54.70;101027.91;4842336;29;20074;-57
2022/08/15 02:30:49;;;;;;;22.05;7.18;;;;;;;20.74;55.15;101011.28;4841415;29;20432;-58
2022/08/15 02:33:15;;;;;;;22.45;7.55;;;;;;;20.60;55.43;101026.50;4841969;29;20472;-58
2022/08/15 02:35:42;;;;;;;19.02;7.45;;;;;;;20.37;56.71;101026.94;4842391;29;20046;-58
2022/08/15 02:38:09;;;;;;;20.25;6.95;;;;;;;20.42;56.69;101019.59;4842509;29;20364;-58
2022/08/15 02:40:36;;;;;;;19.75;6.90;;;;;;;19.95;58.57;101033.28;4842232;29;20375;-59
2022/08/15 02:43:09;;;;;;;17.38;7.22;;;;;;;20.18;58.11;101021.97;4841977;29;20173;-59
2022/08/15 02:45:47;;;;;;;22.33;7.15;;;;;;;19.91;59.15;101032.97;4842108;29;20050;-59
2022/08/15 02:48:14;;;;;;;20.92;6.68;;;;;;;19.86;59.28;101026.69;4842111;29;20026;-59
2022/08/15 02:50:41;;;;;;;21.45;7.13;;;;;;;19.67;59.72;101024.44;4842137;29;20546;-59
2022/08/15 02:53:13;;;;;;;21.10;6.95;;;;;;;19.48;60.52;101028.59;4841965;29;20038;-59
2022/08/15 02:55:42;;;;;;;17.60;7.28;;;;;;;19.67;59.59;101034.47;4842256;29;20093;-59
2022/08/15 02:58:10;;;;;;;20.45;8.02;;;;;;;19.43;60.93;101034.84;4841940;29;20033;-58
2022/08/15 03:00:38;;;;;;;25.67;8.10;;;;;;;19.11;62.12;101042.16;4842263;29;20084;-58
2022/08/15 03:03:09;;;;;;;19.45;7.45;;;;;;;19.01;62.17;101039.34;4842168;29;20123;-58
2022/08/15 03:05:40;;;;;;;19.30;7.93;;;;;;;18.62;63.77;101048.41;4841877;29;20061;-58
2022/08/15 03:08:07;;;;;;;21.17;8.30;;;;;;;18.81;63.64;101046.19;4841792;29;20037;-58
2022/08/15 03:10:35;;;;;;;19.65;7.20;;;;;;;18.86;63.63;101053.56;4841799;29;20059;-58
2022/08/15 03:13:05;;;;;;;19.92;6.82;;;;;;;18.43;65.24;101053.38;4841978;29;20134;-57
2022/08/15 03:15:48;;;;;;;23.23;7.80;;;;;;;18.43;64.80;101047.09;4841895;29;20058;-58
2022/08/15 03:18:14;;;;;;;34.75;10.13;;;;;;;18.39;64.98;101045.97;4842760;29;20063;-58
2022/08/15 03:20:45;;;;;;;24.05;8.10;;;;;;;18.39;64.61;101046.81;4841693;29;20555;-58
2022/08/15 03:23:11;;;;;;;24.60;7.80;;;;;;;18.10;65.93;101046.19;4841834;29;20065;-58
2022/08/15 03:25:40;;;;;;;21.98;8.75;;;;;;;17.90;67.07;101049.41;4841577;29;20034;-58
2022/08/15 03:28:08;;;;;;;25.52;7.70;;;;;;;17.88;66.58;101040.72;4841523;29;20502;-58
2022/08/15 03:30:36;;;;;;;22.85;7.63;;;;;;;17.88;66.76;101042.63;4841422;29;20038;-58
2022/08/15 03:33:03;;;;;;;27.85;8.57;;;;;;;18.06;65.80;101045.03;4841564;29;20491;-58
2022/08/15 03:35:32;;;;;;;21.50;8.00;;;;;;;17.92;66.70;101044.56;4841563;29;20109;-58
2022/08/15 03:37:59;;;;;;;23.45;8.10;;;;;;;17.76;67.52;101053.53;4841407;29;20113;-58
2022/08/15 03:40:28;;;;;;;22.35;7.68;;;;;;;17.71;68.15;101052.59;4841442;29;20033;-58
2022/08/15 03:42:59;;;;;;;22.00;8.65;;;;;;;17.81;67.41;101056.31;4827304;29;20372;-58
2022/08/15 03:45:27;;;;;;;22.05;8.20;;;;;;;17.47;68.33;101057.38;4845084;29;20082;-58
2022/08/15 03:47:54;;;;;;;24.13;7.95;;;;;;;17.51;67.92;101062.06;4844624;29;20049;-58
2022/08/15 03:50:21;;;;;;;21.40;8.55;;;;;;;17.38;68.84;101054.28;4844538;29;20063;-58
2022/08/15 03:52:58;;;;;;;23.38;7.82;;;;;;;17.47;68.34;101066.31;4844394;29;20041;-58
2022/08/15 03:55:27;;;;;;;20.63;8.27;;;;;;;17.42;68.61;101055.41;4845161;29;20108;-58
2022/08/15 03:57:54;;;;;;;23.48;8.63;;;;;;;17.44;68.37;101061.41;4844484;29;20483;-58
2022/08/15 04:00:25;;;;;;;17.55;7.57;;;;;;;17.57;68.35;101058.38;4844390;29;20053;-58
2022/08/15 04:02:53;;;;;;;28.23;9.18;;;;;;;17.46;68.84;101064.69;4844846;29;20038;-58
2022/08/15 04:05:20;;;;;;;16.98;7.05;;;;;;;17.45;69.39;101062.22;4844604;29;20041;-58
2022/08/15 04:07:47;;;;;;;21.20;8.02;;;;;;;17.46;69.40;101069.28;4844646;29;20409;-58
2022/08/15 04:10:16;;;;;;;23.60;8.82;;;;;;;17.53;69.17;101073.44;4844303;29;20220;-58
2022/08/15 04:12:44;;;;;;;22.05;8.75;;;;;;;17.51;69.45;101062.06;4844173;29;20491;-58
2022/08/15 04:15:15;;;;;;;22.60;8.60;;;;;;;17.40;69.85;101069.19;4844499;29;20066;-58
2022/08/15 04:17:43;;;;;;;20.55;8.75;;;;;;;17.50;69.68;101067.72;4844237;29;20029;-58
2022/08/15 04:20:10;;;;;;;27.65;9.00;;;;;;;17.46;69.84;101069.28;4844112;29;20030;-58
2022/08/15 04:22:41;;;;;;;23.35;8.40;;;;;;;17.50;69.94;101075.84;4843924;29;20428;-58
2022/08/15 04:25:09;;;;;;;24.77;8.98;;;;;;;17.37;70.03;101075.09;4843916;29;20109;-58
2022/08/15 04:27:36;;;;;;;33.03;9.45;;;;;;;17.36;70.17;101078.84;4844170;29;20045;-58
2022/08/15 04:30:05;;;;;;;31.25;8.85;;;;;;;17.28;70.46;101081.16;4844120;29;20034;-58
2022/08/15 04:32:31;;;;;;;27.00;8.57;;;;;;;17.22;70.62;101084.84;4843809;29;20507;-58
2022/08/15 04:35:00;;;;;;;25.42;9.05;;;;;;;17.30;70.71;101081.72;4843892;29;20058;-58
2022/08/15 04:37:32;;;;;;;27.95;8.75;;;;;;;17.27;71.04;101079.53;4843695;29;20037;-58
2022/08/15 04:39:58;;;;;;;21.10;8.85;;;;;;;17.39;70.59;101083.78;4843799;29;20037;-58
2022/08/15 04:42:24;;;;;;;22.58;8.27;;;;;;;17.29;70.75;101088.22;4843741;29;20117;-58
2022/08/15 04:44:51;;;;;;;21.17;8.32;;;;;;;17.39;70.31;101093.81;4843747;29;20059;-58
2022/08/15 04:47:17;;;;;;;28.50;9.20;;;;;;;17.36;70.59;101099.69;4843626;29;20041;-58
2022/08/15 04:49:47;;;;;;;29.02;9.30;;;;;;;17.32;70.33;101098.53;4843997;29;20022;-58
2022/08/15 04:52:19;;;;;;;24.05;8.77;;;;;;;17.05;71.37;101091.06;4843941;29;20583;-58
2022/08/15 04:54:46;;;;;;;30.63;8.90;;;;;;;17.11;71.36;101098.19;4842648;29;20021;-58
2022/08/15 04:57:13;;;;;;;28.95;9.18;;;;;;;16.94;72.18;101105.44;4843433;29;20037;-58
2022/08/15 04:59:39;;;;;;;27.05;8.90;;;;;;;16.75;73.12;101101.28;4843300;29;20479;-58
2022/08/15 05:02:09;;;;;;;26.83;8.90;;;;;;;16.81;72.67;101105.72;4843597;29;20609;-58
2022/08/15 05:04:35;;;;;;;23.58;8.57;;;;;;;16.93;71.96;101092.97;4843366;29;20037;-58
2022/08/15 05:07:01;;;;;;;26.88;8.23;;;;;;;16.84;72.00;101094.44;4843282;29;20022;-58
2022/08/15 05:09:28;;;;;;;24.30;8.45;;;;;;;16.73;72.42;101100.72;4843197;29;20030;-58
2022/08/15 05:11:54;;;;;;;32.90;9.90;;;;;;;16.77;72.29;101101.88;4843127;29;20090;-58
2022/08/15 05:14:20;;;;;;;33.42;9.43;;;;;;;16.61;72.55;101090.72;4843562;29;20029;-58
2022/08/15 05:16:46;;;;;;;28.27;9.23;;;;;;;16.43;73.34;101087.34;4843080;29;20114;-58
2022/08/15 05:19:13;;;;;;;25.88;8.82;;;;;;;16.35;73.60;101092.06;4843251;29;20057;-58
2022/08/15 05:21:40;;;;;;;34.22;9.20;;;;;;;16.42;73.49;101094.63;4842957;29;20514;-58
2022/08/15 05:24:07;;;;;;;32.25;9.95;;;;;;;16.46;73.19;101103.09;4843209;29;20034;-58
2022/08/15 05:26:34;;;;;;;28.65;10.07;;;;;;;16.45;73.05;101101.47;4842995;29;20033;-58
2022/08/15 05:29:19;;;;;;;27.38;9.25;;;;;;;16.42;73.49;101094.63;4823040;29;20042;-58
2022/08/15 05:31:46;;;;;;;25.02;9.15;;;;;;;16.37;73.88;101089.13;4822868;29;20039;-58
2022/08/15 05:34:12;;;;;;;20.98;8.63;;;;;;;16.49;73.29;101091.78;4822780;29;20052;-58
2022/08/15 05:36:38;;;;;;;28.83;9.15;;;;;;;16.35;73.98;101091.25;4822679;29;20030;-58
2022/08/15 05:39:25;;;;;;;31.60;9.75;;;;;;;16.46;73.74;101093.09;4822636;29;20088;-58
2022/08/15 05:42:15;;;;;;;26.20;10.00;;;;;;;16.35;73.83;101100.16;4823004;29;20102;-58
2022/08/15 05:45:08;;;;;;;24.75;8.85;;;;;;;16.32;74.33;101097.13;4822954;29;20387;-58
2022/08/15 05:47:42;;;;;;;30.83;9.07;;;;;;;16.24;74.45;101090.22;4823837;29;20046;-58
2022/08/15 05:50:30;;;;;;;22.67;8.13;;;;;;;16.20;74.57;101090.91;4823250;29;20038;-58
2022/08/15 05:53:21;;;;;;;27.52;9.38;;;;;;;16.09;75.38;101082.59;4822525;29;20067;-58
2022/08/15 05:56:19;;;;;;;23.75;8.52;;;;;;;16.22;74.80;101092.34;4822478;29;20102;-58
2022/08/15 05:59:18;;;;;;;23.45;9.50;;;;;;;16.16;74.86;101097.84;4820991;29;20073;-58
2022/08/15 06:01:59;;;;;;;25.23;8.75;;;;;;;16.15;75.15;101097.03;4812287;29;20049;-58
2022/08/15 06:04:43;;;;;;;34.70;9.68;;;;;;;16.13;74.75;101091.06;4822048;29;20087;-58
2022/08/15 06:07:15;;;;;;;22.23;8.57;;;;;;;16.08;74.75;101094.44;4835758;29;20057;-58
2022/08/15 06:10:10;;;;;;;32.40;8.55;;;;;;;16.04;74.85;101106.78;4842499;29;20050;-57
2022/08/15 06:12:42;;;;;;;21.30;7.78;;;;;;;15.98;74.80;101101.50;4838520;29;20503;-57
2022/08/15 06:15:36;;;;;;;23.40;9.10;;;;;;;16.02;74.99;101099.97;4842298;29;20034;-57
2022/08/15 06:18:09;;;;;;;28.60;8.77;;;;;;;15.96;74.88;101098.22;4826087;29;20470;-58
2022/08/15 06:21:01;;;;;;;33.85;9.65;;;;;;;16.07;74.82;101095.50;4842209;29;20025;-58
2022/08/15 06:23:56;;;;;;;25.15;9.48;;;;;;;15.84;75.49;101088.25;4808482;29;20041;-57
2022/08/15 06:26:49;;;;;;;27.13;9.63;;;;;;;15.79;76.07;101088.13;4842236;29;20392;-58
2022/08/15 06:29:47;;;;;;;30.85;9.25;;;;;;;15.84;75.74;101085.56;4842038;29;20403;-57
2022/08/15 06:32:23;;;;;;;40.47;9.82;;;;;;;15.73;76.00;101088.25;4814013;29;20049;-58
2022/08/15 06:35:25;;;;;;;30.55;9.45;;;;;;;15.74;76.07;101096.09;4842127;29;20034;-57
2022/08/15 06:38:14;;;;;;;30.83;9.73;;;;;;;15.73;75.99;101104.44;4841961;29;20086;-58
2022/08/15 06:40:51;;;;;;;29.85;9.27;;;;;;;15.63;76.25;101096.91;4842003;29;20074;-58
2022/08/15 06:43:17;;;;;;;35.22;10.40;;;;;;;15.60;76.67;101086.53;4842426;29;20461;-58
2022/08/15 06:45:48;;;;;;;26.13;8.75;;;;;;;15.57;76.66;101101.34;4841829;29;20433;-57
2022/08/15 06:48:19;;;;;;;29.67;9.57;;;;;;;15.50;76.64;101099.81;4842273;29;20403;-58
2022/08/15 06:50:50;;;;;;;30.80;10.57;;;;;;;15.57;76.43;101087.84;4841849;29;20113;-58
2022/08/15 06:53:56;;;;;;;27.63;9.60;;;;;;;15.54;76.41;101091.00;4841765;29;20479;-58
2022/08/15 06:56:37;;;;;;;;;;;;;;;15.64;76.26;101089.63;4836704;29;20099;-58
2022/08/15 06:59:28;;;;;;;24.23;8.88;;;;;;;15.55;76.30;101084.56;4842366;29;19916;-58
2022/08/15 07:02:19;;;;;;;25.95;8.85;;;;;;;15.53;76.26;101085.84;4841784;29;20053;-57
2022/08/15 07:05:00;;;;;;;26.17;9.52;;;;;;;15.41;76.99;101095.78;4841715;29;20077;-57
2022/08/15 07:07:32;;;;;;;30.02;10.32;;;;;;;15.56;76.67;101099.69;4841871;29;20419;-57
2022/08/15 07:10:11;;;;;;;32.97;9.57;;;;;;;15.62;76.00;101092.56;4841937;29;20068;-57
2022/08/15 07:12:37;;;;;;;36.67;8.85;;;;;;;15.64;76.10;101090.47;4841622;29;20436;-58
2022/08/15 07:15:51;;;;;;;34.00;9.93;;;;;;;15.65;75.93;101096.69;4841600;29;20033;-58
2022/08/15 07:18:58;;;;;;;26.38;8.68;;;;;;;15.48;76.37;101096.50;4806512;29;20042;-58
2022/08/15 07:21:25;;;;;;;25.60;9.00;;;;;;;15.47;76.30;101095.69;4823248;29;20087;-57
2022/08/15 07:24:10;;;;;;;38.45;9.52;;;;;;;15.49;76.53;101101.69;4841358;29;20511;-57
2022/08/15 07:26:49;;;;;;;25.87;8.40;;;;;;;15.57;76.38;101100.53;4845010;29;20503;-57
2022/08/15 07:29:27;;;;;;;29.95;9.88;;;;;;;15.50;76.49;101094.41;4845479;29;20045;-57
2022/08/15 07:32:15;;;;;;;34.65;9.77;;;;;;;15.52;76.44;101098.50;4845053;29;20042;-58
2022/08/15 07:34:59;;;;;;;30.58;9.10;;;;;;;15.44;76.77;101098.03;4845076;29;20038;-57
2022/08/15 07:37:32;;;;;;;28.38;9.25;;;;;;;15.28;77.05;101096.84;4844885;29;20078;-57
2022/08/15 07:40:17;;;;;;;33.85;9.73;;;;;;;15.27;77.13;101104.09;4844810;29;20093;-57
2022/08/15 07:42:45;;;;;;;25.63;8.57;;;;;;;15.22;77.35;101106.66;4845086;29;20048;-57
2022/08/15 07:45:25;;;;;;;33.67;8.75;;;;;;;15.15;77.51;101107.78;4844515;29;20084;-58
2022/08/15 07:48:11;;;;;;;37.28;9.57;;;;;;;15.13;77.65;101104.53;4844728;29;20081;-57
2022/08/15 07:51:00;;;;;;;31.63;9.10;;;;;;;15.13;77.85;101099.94;4844770;29;20108;-57
2022/08/15 07:53:26;;;;;;;31.48;10.07;;;;;;;15.15;77.18;101099.72;4844878;29;20135;-58
2022/08/15 07:56:06;;;;;;;27.45;9.65;;;;;;;15.15;77.26;101097.84;4844537;29;20032;-57
2022/08/15 07:58:34;;;;;;;26.17;8.32;;;;;;;15.11;77.46;101098.53;4844508;29;20030;-57
2022/08/15 08:01:38;;;;;;;29.73;9.10;;;;;;;15.12;77.12;101089.41;4844715;29;20042;-58
2022/08/15 08:04:15;;;;;;;24.40;8.13;;;;;;;15.07;77.47;101094.66;4806127;29;20038;-57
2022/08/15 08:06:53;;;;;;;33.00;9.68;;;;;;;15.00;77.46;101079.41;4840154;29;20042;-58
2022/08/15 08:09:43;;;;;;;25.38;9.20;;;;;;;15.11;77.40;101082.38;4844267;29;20036;-57
2022/08/15 08:12:27;;;;;;;28.65;9.30;;;;;;;14.97;77.85;101074.47;4827732;29;20419;-57
2022/08/15 08:15:12;;;;;;;39.70;9.82;;;;;;;14.94;78.03;101080.31;4844385;29;20030;-57
2022/08/15 08:17:44;;;;;;;30.20;9.85;;;;;;;15.00;77.60;101075.88;4844592;29;20542;-57
2022/08/15 08:20:23;;;;;;;27.48;8.27;;;;;;;15.11;77.16;101077.78;4844566;29;20489;-57
2022/08/15 08:23:10;;;;;;;33.30;9.35;;;;;;;14.94;77.92;101079.50;4844191;29;20041;-58
2022/08/15 08:25:49;;;;;;;24.00;9.27;;;;;;;15.00;77.61;101071.31;4844109;29;20483;-57
2022/08/15 08:28:45;;;;;;;37.40;10.02;;;;;;;14.99;77.62;101066.13;4844317;29;20090;-58
2022/08/15 08:31:51;;;;;;;28.15;9.25;;;;;;;14.93;78.01;101078.66;4843954;29;20547;-57
2022/08/15 08:34:23;;;;;;;;;;;;;;;15.03;77.57;101070.03;4844831;29;20045;-57
2022/08/15 08:37:02;;;;;;;36.90;9.32;;;;;;;14.98;77.60;101075.28;4843898;29;20001;-57
2022/08/15 08:41:24;;;;;;;28.58;9.65;;;;;;;15.03;77.58;101059.25;4843909;29;20089;-57
2022/08/15 08:43:00;;;;;;;29.92;9.60;;;;;;;14.89;78.20;101068.59;4843407;29;20066;-58
2022/08/15 08:45:43;;;;;;;30.75;9.95;;;;;;;14.92;78.35;101068.94;4843493;29;20056;-58
2022/08/15 08:48:45;;;;;;;30.17;9.05;;;;;;;14.94;78.60;101069.53;4843953;29;20124;-57
2022/08/15 08:51:44;;;;;;;28.88;9.60;;;;;;;14.94;78.20;101069.53;4823781;29;20039;-57
2022/08/15 08:54:19;;;;;;;33.95;9.40;;;;;;;14.86;78.50;101064.44;4841256;29;20048;-58
2022/08/15 08:56:53;;;;;;;28.00;9.63;;;;;;;14.93;78.44;101067.06;4841448;29;20070;-58
2022/08/15 08:59:45;;;;;;;25.90;9.02;;;;;;;14.85;78.70;101067.38;4841410;29;20042;-57
2022/08/15 09:02:17;;;;;;;32.55;10.45;;;;;;;14.86;78.27;101067.16;4841470;29;20037;-57
2022/08/15 09:04:51;;;;;;;28.27;9.18;;;;;;;14.82;78.29;101062.44;4841393;29;20030;-58
2022/08/15 09:07:30;;;;;;;32.80;8.27;;;;;;;14.81;78.25;101058.09;4841886;29;20125;-58
2022/08/15 09:10:00;;;;;;;28.77;8.93;;;;;;;14.83;78.17;101058.72;4841699;29;20033;-58
2022/08/15 09:15:21;;;;;;;27.60;8.02;;;;;;;14.81;77.85;101058.94;4841760;29;20041;-57
2022/08/15 09:17:54;;;;;;;42.20;10.07;;;;;;;14.93;77.49;101057.09;4841130;29;20539;-58
2022/08/15 09:20:35;;;;;;;32.22;8.82;;;;;;;14.75;77.91;101060.66;4841130;29;20049;-57
2022/08/15 09:23:05;;;;;;;29.30;9.27;;;;;;;14.77;78.25;101046.97;4843297;29;20134;-57
2022/08/15 09:25:36;;;;;;;33.55;9.63;;;;;;;14.61;78.49;101044.91;4842777;29;20420;-57
2022/08/15 09:28:11;;;;;;;31.33;9.10;;;;;;;14.64;78.62;101044.44;4843062;29;20033;-58
2022/08/15 09:30:39;;;;;;;;;;;;;;;14.60;78.46;101045.94;4843339;29;20113;-58
2022/08/15 09:34:00;;;;;;;31.13;8.70;;;;;;;14.74;78.20;101042.03;4842849;29;19917;-57
2022/08/15 09:36:50;;;;;;;30.88;8.50;;;;;;;14.72;78.18;101046.84;4804540;29;20035;-58
2022/08/15 09:40:10;;;;;;;26.30;8.70;;;;;;;14.71;77.80;101053.25;4842308;29;20034;-58
2022/08/15 09:42:55;;;;;;;31.60;9.65;;;;;;;14.73;78.35;101045.78;4827649;29;20034;-57
2022/08/15 09:45:44;;;;;;;28.90;9.38;;;;;;;14.84;77.81;101044.19;4842613;29;20045;-58
2022/08/15 09:48:47;;;;;;;27.50;8.90;;;;;;;14.83;77.44;101040.69;4843094;29;20065;-57
2022/08/15 09:51:19;;;;;;;30.23;8.98;;;;;;;14.75;77.56;101040.97;4842437;29;20364;-57
2022/08/15 09:54:05;;;;;;;36.63;10.15;;;;;;;14.65;78.21;101035.31;4842521;29;20041;-58
2022/08/15 09:56:36;;;;;;;26.80;8.00;;;;;;;14.68;78.53;101037.56;4842564;29;20033;-57
2022/08/15 09:59:14;;;;;;;29.30;9.05;;;;;;;14.68;78.55;101040.25;4842736;29;20109;-57
2022/08/15 10:01:52;;;;;;;32.63;8.73;;;;;;;14.73;78.11;101032.31;4842385;29;20033;-58
2022/08/15 10:04:24;;;;;;;38.13;9.82;;;;;;;14.68;77.96;101038.38;4842508;29;20064;-57
2022/08/15 10:07:04;;;;;;;23.90;8.40;;;;;;;14.55;78.54;101032.34;4842593;29;20022;-58
2022/08/15 10:09:33;;;;;;;30.60;9.68;;;;;;;14.49;79.00;101032.22;4842973;29;20037;-58
2022/08/15 10:12:20;;;;;;;38.70;9.07;;;;;;;14.55;78.84;101024.25;4842277;29;20034;-58
2022/08/15 10:14:51;;;;;;;28.58;8.15;;;;;;;14.38;79.52;101032.09;4842458;29;20030;-58
2022/08/15 10:17:37;;;;;;;28.42;9.15;;;;;;;14.45;79.31;101028.31;4842187;29;20036;-58
2022/08/15 10:20:18;;;;;;;26.38;8.80;;;;;;;14.60;78.45;101030.59;4842607;29;20413;-58
2022/08/15 10:22:57;;;;;;;32.33;8.73;;;;;;;14.52;78.33;101020.16;4842339;29;20049;-57
2022/08/15 10:25:26;;;;;;;34.35;8.73;;;;;;;14.63;78.23;101015.88;4842078;29;20075;-58
2022/08/15 10:27:54;;;;;;;31.52;9.35;;;;;;;14.52;78.72;101020.97;4842122;29;20026;-58
2022/08/15 10:30:24;;;;;;;26.25;9.50;;;;;;;14.50;79.14;101015.00;4842098;29;20595;-58
2022/08/15 10:32:52;;;;;;;30.20;8.90;;;;;;;14.41;79.41;101016.31;4842032;29;20108;-58
2022/08/15 10:35:36;;;;;;;44.28;10.07;;;;;;;14.31;80.31;101016.03;4841976;29;20030;-57
2022/08/15 10:38:07;;;;;;;28.90;9.25;;;;;;;14.35;80.22;101016.41;4842644;29;20036;-57
2022/08/15 10:40:57;;;;;;;27.20;8.68;;;;;;;14.43;80.40;101014.22;4841916;29;20109;-57
2022/08/15 10:43:32;;;;;;;38.25;9.00;;;;;;;14.48;80.27;101008.19;4842477;29;20089;-58
2022/08/15 10:46:17;;;;;;;41.13;9.48;;;;;;;14.56;79.46;101012.47;4841581;29;20050;-58
2022/08/15 10:48:49;;;;;;;37.15;9.35;;;;;;;14.56;79.77;101015.97;4825607;29;20034;-57
2022/08/15 10:52:10;;;;;;;31.35;9.13;;;;;;;14.60;79.15;101013.63;4842165;29;20030;-58
2022/08/15 10:55:03;;;;;;;36.33;10.32;;;;;;;14.71;78.29;101016.38;4826921;29;20038;-57
2022/08/15 10:57:39;;;;;;;33.55;8.95;;;;;;;14.67;78.72;101019.75;4846753;29;20041;-57
2022/08/15 11:00:08;;;;;;;26.30;8.02;;;;;;;14.65;78.41;101008.38;4845949;29;20494;-57
2022/08/15 11:02:41;;;;;;;24.95;8.70;;;;;;;14.56;78.09;101009.75;4845624;29;20042;-57
2022/08/15 11:05:15;;;;;;;28.65;8.18;;;;;;;14.69;77.65;101020.34;4845588;29;20033;-58
2022/08/15 11:07:53;;;;;;;29.10;9.57;;;;;;;14.61;78.28;101015.28;4845469;29;20106;-58
2022/08/15 11:10:24;;;;;;;27.00;8.18;;;;;;;14.70;78.00;101013.91;4845462;29;20045;-57
2022/08/15 11:12:54;;;;;;;30.00;8.25;;;;;;;14.76;77.54;101023.75;4845278;29;20051;-57
2022/08/15 11:15:27;;;;;;;24.70;8.55;;;;;;;14.77;77.32;101022.72;4845886;29;20041;-57
2022/08/15 11:18:19;;;;;;;32.47;7.95;;;;;;;14.77;77.55;101025.44;4845314;29;20033;-57
2022/08/15 11:20:52;;;;;;;30.75;9.25;;;;;;;14.79;77.77;101029.53;4845259;29;20033;-57
2022/08/15 11:23:39;;;;;;;37.90;8.45;;;;;;;14.66;78.60;101026.22;4845295;29;20041;-57
2022/08/15 11:26:08;;;;;;;43.08;9.02;;;;;;;14.63;78.38;101019.38;4845134;29;20037;-57
2022/08/15 11:28:39;;;;;;;34.38;9.48;;;;;;;14.69;78.00;101026.56;4845226;29;20060;-57
2022/08/15 11:31:17;;;;;;;30.38;8.38;;;;;;;14.63;78.63;101024.78;4845296;29;20114;-58
2022/08/15 11:33:48;;;;;;;35.40;9.23;;;;;;;14.50;78.83;101019.56;4845105;29;20025;-57
2022/08/15 11:36:27;;;;;;;36.88;8.38;;;;;;;14.56;78.40;101015.97;4844929;29;20029;-58
2022/08/15 11:38:56;;;;;;;30.75;8.88;;;;;;;14.41;79.26;101005.56;4845819;29;20058;-57
2022/08/15 11:41:29;;;;;;;34.55;10.10;;;;;;;14.34;79.09;101006.69;4844686;29;20077;-57
2022/08/15 11:43:59;;;;;;;28.92;9.10;;;;;;;14.27;79.80;100996.03;4844889;29;20568;-58
2022/08/15 11:46:27;;;;;;;29.73;10.23;;;;;;;14.34;79.48;100996.75;4845055;29;20137;-57
2022/08/15 11:49:20;;;;;;;32.78;8.73;;;;;;;14.44;78.97;100994.34;4844639;29;20034;-57
2022/08/15 11:51:47;;;;;;;39.70;9.43;;;;;;;14.36;79.29;100994.63;4844136;29;20030;-57
2022/08/15 11:54:13;;;;;;;31.70;8.15;;;;;;;14.43;78.74;100994.53;4844813;29;20030;-57
2022/08/15 11:56:58;;;;;;;27.35;8.20;;;;;;;14.36;78.95;100991.94;4844656;29;20041;-58
2022/08/15 11:59:29;;;;;;;28.67;8.70;;;;;;;14.48;78.22;100992.84;4844540;29;20061;-57
2022/08/15 12:02:27;;;;;;;35.22;8.32;;;;;;;14.52;77.90;100991.34;4844265;29;20060;-58